createdAt,value
2018-04-11T00:00:58.401Z,28.70
2018-04-11T00:03:25.185Z,27.90
2018-04-11T00:05:51.260Z,27.50
2018-04-11T00:08:17.451Z,27.80
2018-04-11T00:10:43.521Z,26.40
2018-04-11T00:13:09.861Z,25.90
2018-04-11T00:15:36.034Z,27.00
2018-04-11T00:18:02.897Z,28.50
2018-04-11T00:20:29.147Z,28.50
2018-04-11T00:22:55.241Z,28.40
2018-04-11T00:25:21.561Z,27.70
2018-04-11T00:27:48.397Z,28.30
2018-04-11T00:30:14.536Z,27.80
2018-04-11T00:32:40.674Z,27.60
2018-04-11T00:35:06.815Z,26.60
2018-04-11T00:37:32.989Z,28.90
2018-04-11T00:39:59.057Z,29.20
2018-04-11T00:42:25.161Z,29.80
2018-04-11T00:44:51.237Z,27.70
2018-04-11T00:47:17.329Z,27.60
2018-04-11T00:49:43.422Z,25.70
2018-04-11T00:52:09.499Z,26.80
2018-04-11T00:54:35.655Z,27.90
2018-04-11T00:57:01.704Z,28.20
2018-04-11T00:59:27.741Z,28.70
2018-04-11T01:01:54.108Z,28.60
2018-04-11T01:04:20.153Z,27.60
2018-04-11T01:06:46.277Z,27.00
2018-04-11T01:09:12.441Z,26.50
2018-04-11T01:11:39.288Z,27.30
2018-04-11T01:14:05.387Z,27.20
2018-04-11T01:16:31.650Z,27.50
2018-04-11T01:18:58.274Z,24.70
2018-04-11T01:21:24.433Z,25.30
2018-04-11T01:23:50.504Z,25.40
2018-04-11T01:26:16.586Z,26.00
2018-04-11T01:28:42.668Z,24.80
2018-04-11T01:31:09.490Z,25.90
2018-04-11T01:33:35.659Z,25.60
2018-04-11T01:36:01.718Z,25.70
2018-04-11T01:38:27.758Z,24.80
2018-04-11T01:40:53.865Z,24.30
2018-04-11T01:43:19.914Z,25.80
2018-04-11T01:45:46.693Z,27.10
2018-04-11T01:48:12.802Z,27.00
2018-04-11T01:50:38.957Z,26.50
2018-04-11T01:53:05.343Z,26.50
2018-04-11T01:55:32.344Z,24.40
2018-04-11T01:57:59.128Z,25.70
2018-04-11T02:00:25.337Z,26.10
2018-04-11T02:02:52.129Z,27.70
2018-04-11T02:05:18.175Z,28.10
2018-04-11T02:07:44.216Z,24.90
2018-04-11T02:10:10.318Z,24.70
2018-04-11T02:12:36.489Z,22.90
2018-04-11T02:15:02.553Z,24.80
2018-04-11T02:17:28.605Z,23.60
2018-04-11T02:19:55.624Z,24.30
2018-04-11T02:22:21.681Z,24.20
2018-04-11T02:24:47.795Z,26.30
2018-04-11T02:27:13.992Z,26.90
2018-04-11T02:29:40.095Z,25.80
2018-04-11T02:32:06.232Z,25.60
2018-04-11T02:34:32.323Z,26.60
2018-04-11T02:36:58.703Z,26.60
2018-04-11T02:39:24.747Z,26.70
2018-04-11T02:41:51.010Z,26.80
2018-04-11T02:44:17.988Z,28.50
2018-04-11T02:46:44.960Z,27.50
2018-04-11T02:49:11.273Z,27.40
2018-04-11T02:51:38.111Z,29.30
2018-04-11T02:54:04.229Z,29.20
2018-04-11T02:56:30.305Z,29.20
2018-04-11T02:58:56.520Z,29.50
2018-04-11T03:01:22.779Z,28.60
2018-04-11T03:03:49.098Z,27.10
2018-04-11T03:06:15.321Z,25.90
2018-04-11T03:08:41.593Z,27.10
2018-04-11T03:11:08.637Z,24.60
2018-04-11T03:13:34.897Z,24.40
2018-04-11T03:16:01.898Z,26.10
2018-04-11T03:18:28.116Z,26.00
2018-04-11T03:20:55.086Z,26.80
2018-04-11T03:23:21.360Z,26.70
2018-04-11T03:25:47.581Z,24.50
2018-04-11T03:28:13.806Z,24.40
2018-04-11T03:30:40.077Z,25.50
2018-04-11T03:33:06.420Z,26.20
2018-04-11T03:35:32.669Z,28.70
2018-04-11T03:37:58.905Z,28.80
2018-04-11T03:40:25.125Z,29.70
2018-04-11T03:42:51.370Z,30.20
2018-04-11T03:45:17.596Z,29.70
2018-04-11T03:47:43.840Z,31.00
2018-04-11T03:50:10.162Z,29.50
2018-04-11T03:52:36.560Z,28.40
2018-04-11T03:55:02.857Z,33.70
2018-04-11T03:57:29.441Z,32.20
2018-04-11T03:59:55.840Z,35.00
2018-04-11T04:02:22.122Z,38.00
2018-04-11T04:04:48.386Z,40.50
2018-04-11T04:07:15.403Z,44.10
2018-04-11T04:09:41.756Z,44.10
2018-04-11T04:12:08.098Z,42.90
2018-04-11T04:14:46.700Z,39.50
2018-04-11T04:17:25.216Z,37.50
2018-04-11T04:20:03.804Z,38.50
2018-04-11T04:22:30.061Z,40.60
2018-04-11T04:24:56.985Z,35.60
2018-04-11T04:27:23.332Z,36.40
2018-04-11T04:29:49.624Z,38.70
2018-04-11T04:32:15.873Z,34.70
2018-04-11T04:34:42.172Z,32.90
2018-04-11T04:37:09.390Z,30.60
2018-04-11T04:39:35.730Z,30.50
2018-04-11T04:42:02.012Z,32.20
2018-04-11T04:44:28.284Z,36.40
2018-04-11T04:46:54.545Z,32.90
2018-04-11T04:49:20.872Z,31.90
2018-04-11T04:51:47.142Z,37.50
2018-04-11T04:54:13.397Z,42.50
2018-04-11T04:56:39.840Z,40.40
2018-04-11T04:59:06.110Z,38.00
2018-04-11T05:01:33.189Z,43.00
2018-04-11T05:03:59.445Z,43.00
2018-04-11T05:06:26.444Z,40.30
2018-04-11T05:08:52.688Z,40.10
2018-04-11T05:11:18.921Z,44.20
2018-04-11T05:13:45.176Z,40.80
2018-04-11T05:16:11.584Z,42.30
2018-04-11T05:18:37.921Z,47.90
2018-04-11T05:21:04.223Z,46.90
2018-04-11T05:23:30.681Z,43.90
2018-04-11T05:25:57.663Z,44.80
2018-04-11T05:28:23.928Z,44.70
2018-04-11T05:30:50.182Z,40.90
2018-04-11T05:33:16.424Z,41.00
2018-04-11T05:35:42.709Z,48.50
2018-04-11T05:38:09.708Z,50.20
2018-04-11T05:40:36.021Z,49.50
2018-04-11T05:43:02.349Z,49.80
2018-04-11T05:45:29.308Z,47.00
2018-04-11T05:47:56.299Z,47.60
2018-04-11T05:50:22.592Z,47.00
2018-04-11T05:52:48.912Z,47.60
2018-04-11T05:55:15.189Z,46.40
2018-04-11T05:57:41.615Z,46.80
2018-04-11T06:00:08.668Z,46.10
2018-04-11T06:02:35.736Z,46.90
2018-04-11T06:05:02.820Z,45.10
2018-04-11T06:07:29.061Z,45.00
2018-04-11T06:09:56.045Z,47.80
2018-04-11T06:12:22.313Z,48.60
2018-04-11T06:14:48.592Z,46.80
2018-04-11T06:17:14.841Z,46.80
2018-04-11T06:19:41.324Z,47.70
2018-04-11T06:22:07.633Z,46.80
2018-04-11T06:24:34.685Z,45.70
2018-04-11T06:27:01.071Z,46.20
2018-04-11T06:29:27.372Z,42.10
2018-04-11T06:31:54.361Z,41.80
2018-04-11T06:34:20.652Z,41.70
2018-04-11T06:36:46.952Z,42.80
2018-04-11T06:39:13.236Z,40.20
2018-04-11T06:41:39.596Z,39.50
2018-04-11T06:44:05.969Z,35.20
2018-04-11T06:46:32.277Z,36.30
2018-04-11T06:48:58.580Z,37.70
2018-04-11T06:51:24.861Z,35.00
2018-04-11T06:53:51.124Z,33.40
2018-04-11T06:56:17.349Z,35.90
2018-04-11T06:58:43.614Z,35.30
2018-04-11T07:01:09.884Z,35.60
2018-04-11T07:03:36.125Z,33.80
2018-04-11T07:06:02.383Z,33.60
2018-04-11T07:08:28.715Z,34.90
2018-04-11T07:10:55.704Z,33.20
2018-04-11T07:13:21.957Z,32.90
2018-04-11T07:15:49.278Z,32.30
2018-04-11T07:18:16.268Z,31.60
2018-04-11T07:20:42.625Z,31.50
2018-04-11T07:23:08.944Z,30.80
2018-04-11T07:25:35.269Z,32.60
2018-04-11T07:28:02.260Z,32.40
2018-04-11T07:30:28.534Z,32.30
2018-04-11T07:32:54.760Z,34.10
2018-04-11T07:35:21.028Z,32.50
2018-04-11T07:37:47.283Z,30.80
2018-04-11T07:40:13.562Z,30.50
2018-04-11T07:42:39.833Z,30.10
2018-04-11T07:45:06.285Z,31.70
2018-04-11T07:47:32.537Z,32.10
2018-04-11T07:49:58.793Z,29.60
2018-04-11T07:52:25.822Z,30.50
2018-04-11T07:54:52.085Z,30.30
2018-04-11T07:57:18.376Z,29.60
2018-04-11T07:59:44.640Z,28.60
2018-04-11T08:02:10.925Z,27.60
2018-04-11T08:04:38.005Z,27.20
2018-04-11T08:07:04.275Z,27.20
2018-04-11T08:09:30.545Z,27.00
2018-04-11T08:11:57.549Z,28.00
2018-04-11T08:14:23.809Z,27.90
2018-04-11T08:16:50.072Z,28.60
2018-04-11T08:19:16.345Z,28.20
2018-04-11T08:21:42.665Z,28.00
2018-04-11T08:24:09.003Z,28.00
2018-04-11T08:26:35.320Z,28.00
2018-04-11T08:29:01.616Z,27.90
2018-04-11T08:31:28.621Z,26.90
2018-04-11T08:33:54.900Z,27.30
2018-04-11T08:36:21.917Z,26.40
2018-04-11T08:38:48.143Z,26.40
2018-04-11T08:41:14.442Z,26.10
2018-04-11T08:43:41.487Z,24.80
2018-04-11T08:46:07.801Z,24.70
2018-04-11T08:48:34.048Z,23.30
2018-04-11T08:51:00.300Z,22.60
2018-04-11T08:53:31.845Z,22.60
2018-04-11T08:55:58.128Z,22.20
2018-04-11T08:58:24.450Z,21.40
2018-04-11T09:00:50.739Z,19.30
2018-04-11T09:03:17.040Z,19.00
2018-04-11T09:05:43.363Z,17.50
2018-04-11T09:08:09.745Z,16.00
2018-04-11T09:10:38.512Z,15.80
2018-04-11T09:13:04.842Z,16.30
2018-04-11T09:15:31.117Z,16.20
2018-04-11T09:17:58.149Z,14.90
2018-04-11T09:20:24.433Z,15.10
2018-04-11T09:22:50.680Z,14.30
2018-04-11T09:25:17.696Z,15.40
2018-04-11T09:27:48.371Z,15.30
2018-04-11T09:30:14.673Z,14.40
2018-04-11T09:32:41.006Z,15.00
2018-04-11T09:35:07.328Z,14.50
2018-04-11T09:37:33.649Z,15.10
2018-04-11T09:40:00.090Z,13.00
2018-04-11T09:42:26.414Z,13.20
2018-04-11T09:44:52.762Z,12.30
2018-04-11T09:47:20.940Z,11.40
2018-04-11T09:49:49.053Z,11.40
2018-04-11T09:52:15.527Z,12.20
2018-04-11T09:54:41.894Z,11.90
2018-04-11T09:57:08.257Z,9.20
2018-04-11T09:59:34.557Z,8.80
2018-04-11T10:02:00.861Z,9.30
2018-04-11T10:04:27.156Z,8.40
2018-04-11T10:06:58.279Z,9.00
2018-04-11T10:09:24.513Z,9.60
2018-04-11T10:11:50.758Z,10.20
2018-04-11T10:14:17.093Z,9.50
2018-04-11T10:16:43.378Z,10.90
2018-04-11T10:19:09.688Z,9.40
2018-04-11T10:21:36.929Z,9.60
2018-04-11T10:24:04.132Z,9.30
2018-04-11T10:26:34.349Z,11.60
2018-04-11T10:29:00.413Z,12.20
2018-04-11T10:31:26.493Z,13.10
2018-04-11T10:33:52.567Z,11.60
2018-04-11T10:36:18.633Z,12.00
2018-04-11T10:38:44.697Z,12.00
2018-04-11T10:41:10.883Z,10.70
2018-04-11T10:43:37.054Z,10.10
2018-04-11T10:46:04.681Z,9.80
2018-04-11T10:48:30.797Z,8.00
2018-04-11T10:50:56.870Z,8.10
2018-04-11T10:53:22.926Z,5.10
2018-04-11T10:55:48.977Z,6.80
2018-04-11T10:58:15.028Z,6.20
2018-04-11T11:00:41.111Z,6.30
2018-04-11T11:03:07.256Z,6.20
2018-04-11T11:05:36.266Z,6.40
2018-04-11T11:08:02.360Z,6.20
2018-04-11T11:10:28.440Z,5.70
2018-04-11T11:12:54.517Z,5.40
2018-04-11T11:15:20.574Z,5.00
2018-04-11T11:17:46.622Z,5.10
2018-04-11T11:20:13.488Z,4.20
2018-04-11T11:22:45.529Z,4.40
2018-04-11T11:25:11.677Z,4.90
2018-04-11T11:27:38.674Z,3.10
2018-04-11T11:30:04.792Z,3.00
2018-04-11T11:32:30.850Z,3.30
2018-04-11T11:34:56.926Z,3.00
2018-04-11T11:37:23.002Z,2.40
2018-04-11T11:39:51.302Z,2.80
2018-04-11T11:42:17.397Z,2.40
2018-04-11T11:44:43.460Z,2.10
2018-04-11T11:47:10.324Z,1.40
2018-04-11T11:49:36.487Z,1.60
2018-04-11T11:52:02.599Z,1.00
2018-04-11T11:54:29.397Z,1.00
2018-04-11T11:57:00.437Z,1.00
2018-04-11T11:59:26.514Z,1.00
2018-04-11T12:01:52.564Z,1.00
2018-04-11T12:04:18.623Z,1.00
2018-04-11T12:06:44.668Z,1.00
2018-04-11T12:09:10.834Z,1.00
2018-04-11T12:11:37.763Z,1.00
2018-04-11T12:14:06.830Z,1.00
2018-04-11T12:16:33.755Z,1.00
2018-04-11T12:18:59.805Z,1.00
2018-04-11T12:21:25.856Z,1.00
2018-04-11T12:23:51.909Z,1.00
2018-04-11T12:26:17.988Z,1.00
2018-04-11T12:28:44.060Z,1.00
2018-04-11T12:31:12.768Z,1.00
2018-04-11T12:33:38.858Z,1.00
2018-04-11T12:36:04.969Z,1.00
2018-04-11T12:38:31.025Z,1.00
2018-04-11T12:40:57.148Z,1.00
2018-04-11T12:43:23.937Z,1.00
2018-04-11T12:45:50.002Z,1.00
2018-04-11T12:48:16.070Z,1.00
2018-04-11T12:50:42.140Z,1.00
2018-04-11T12:53:08.337Z,1.00
2018-04-11T12:55:35.209Z,1.00
2018-04-11T12:58:01.301Z,1.00
2018-04-11T13:00:27.369Z,1.20
2018-04-11T13:02:53.461Z,1.00
2018-04-11T13:05:19.532Z,1.30
2018-04-11T13:07:45.611Z,1.00
2018-04-11T13:10:11.716Z,1.10
2018-04-11T13:12:37.874Z,1.00
2018-04-11T13:15:03.997Z,1.10
2018-04-11T13:17:30.792Z,1.50
2018-04-11T13:19:56.877Z,1.40
2018-04-11T13:22:23.705Z,1.40
2018-04-11T13:24:49.790Z,1.30
2018-04-11T13:27:15.872Z,1.40
2018-04-11T13:29:41.990Z,1.00
2018-04-11T13:32:08.140Z,1.50
2018-04-11T13:34:34.237Z,2.30
2018-04-11T13:37:00.544Z,1.80
2018-04-11T13:39:26.841Z,3.00
2018-04-11T13:41:53.161Z,4.00
2018-04-11T13:44:20.185Z,5.30
2018-04-11T13:46:46.473Z,5.10
2018-04-11T13:49:12.752Z,4.10
2018-04-11T13:51:39.100Z,3.60
2018-04-11T13:54:05.574Z,4.40
2018-04-11T13:56:31.881Z,4.30
2018-04-11T13:58:58.151Z,4.80
2018-04-11T14:01:24.451Z,3.90
2018-04-11T14:03:50.733Z,4.20
2018-04-11T14:06:17.009Z,5.10
2018-04-11T14:08:44.033Z,6.90
2018-04-11T14:11:11.072Z,5.40
2018-04-11T14:13:38.190Z,5.90
2018-04-11T14:16:04.558Z,4.90
2018-04-11T14:18:30.856Z,5.50
2018-04-11T14:20:57.137Z,5.90
2018-04-11T14:23:23.457Z,6.70
2018-04-11T14:25:50.485Z,7.00
2018-04-11T14:28:16.761Z,6.90
2018-04-11T14:30:43.077Z,7.50
2018-04-11T14:33:09.475Z,8.40
2018-04-11T14:35:35.805Z,8.80
2018-04-11T14:38:02.106Z,9.00
2018-04-11T14:40:29.157Z,10.20
2018-04-11T14:42:57.289Z,11.10
2018-04-11T14:45:23.597Z,11.10
2018-04-11T14:47:50.635Z,11.10
2018-04-11T14:50:17.491Z,11.10
2018-04-11T14:52:44.525Z,10.00
2018-04-11T14:55:11.539Z,10.40
2018-04-11T14:57:37.874Z,10.40
2018-04-11T15:00:06.387Z,9.80
2018-04-11T15:02:32.452Z,11.20
2018-04-11T15:04:58.508Z,10.40
2018-04-11T15:07:24.741Z,10.10
2018-04-11T15:09:50.971Z,9.80
2018-04-11T15:12:17.257Z,10.40
2018-04-11T15:14:43.530Z,11.00
2018-04-11T15:17:14.316Z,10.70
2018-04-11T15:19:40.465Z,10.90
2018-04-11T15:22:07.374Z,11.20
2018-04-11T15:24:33.457Z,10.90
2018-04-11T15:27:00.285Z,9.80
2018-04-11T15:29:26.374Z,9.50
2018-04-11T15:31:53.161Z,8.80
2018-04-11T15:34:19.236Z,8.80
2018-04-11T15:36:45.315Z,9.40
2018-04-11T15:39:11.453Z,8.00
2018-04-11T15:41:37.556Z,7.90
2018-04-11T15:44:03.623Z,8.70
2018-04-11T15:46:36.730Z,8.40
2018-04-11T15:49:03.001Z,8.20
2018-04-11T15:51:29.248Z,7.50
2018-04-11T15:53:55.533Z,7.00
2018-04-11T15:56:21.805Z,7.70
2018-04-11T15:58:48.793Z,8.20
2018-04-11T16:01:15.093Z,8.80
2018-04-11T16:03:41.436Z,8.50
2018-04-11T16:06:07.795Z,7.60
2018-04-11T16:08:34.112Z,7.40
2018-04-11T16:11:01.128Z,7.70
2018-04-11T16:13:27.412Z,8.10
2018-04-11T16:15:54.451Z,7.50
2018-04-11T16:18:20.748Z,7.40
2018-04-11T16:20:47.033Z,7.50
2018-04-11T16:23:13.309Z,7.50
2018-04-11T16:25:40.411Z,7.20
2018-04-11T16:28:06.745Z,7.30
2018-04-11T16:30:33.543Z,6.30
2018-04-11T16:32:59.835Z,6.40
2018-04-11T16:35:26.144Z,5.40
2018-04-11T16:37:52.437Z,4.70
2018-04-11T16:40:18.709Z,4.90
2018-04-11T16:42:45.763Z,2.20
2018-04-11T16:45:12.076Z,2.00
2018-04-11T16:47:42.424Z,1.30
2018-04-11T16:50:08.589Z,1.30
2018-04-11T16:52:35.452Z,1.00
2018-04-11T16:55:01.525Z,1.00
2018-04-11T16:57:27.705Z,2.10
2018-04-11T16:59:54.500Z,1.10
2018-04-11T17:02:21.280Z,1.20
2018-04-11T17:04:47.350Z,1.00
2018-04-11T17:07:14.149Z,1.00
2018-04-11T17:09:40.259Z,1.00
2018-04-11T17:12:06.365Z,1.50
2018-04-11T17:14:33.197Z,1.00
2018-04-11T17:16:59.366Z,1.00
2018-04-11T17:19:25.481Z,1.00
2018-04-11T17:22:04.027Z,1.00
2018-04-11T17:24:42.312Z,1.00
2018-04-11T17:27:21.694Z,1.00
2018-04-11T17:30:00.220Z,1.70
2018-04-11T17:32:26.315Z,2.50
2018-04-11T17:34:53.923Z,2.70
2018-04-11T17:37:20.009Z,2.70
2018-04-11T17:39:46.058Z,3.20
2018-04-11T17:42:12.160Z,3.90
2018-04-11T17:44:39.017Z,6.00
2018-04-11T17:47:05.168Z,5.80
2018-04-11T17:49:32.693Z,6.20
2018-04-11T17:51:58.751Z,6.00
2018-04-11T17:54:26.699Z,6.00
2018-04-11T17:56:52.876Z,7.10
2018-04-11T17:59:18.933Z,7.20
2018-04-11T18:01:44.989Z,7.20
2018-04-11T18:04:11.113Z,7.40
2018-04-11T18:06:37.254Z,8.00
2018-04-11T18:09:03.324Z,8.10
2018-04-11T18:11:29.404Z,7.70
2018-04-11T18:13:56.221Z,5.40
2018-04-11T18:16:22.293Z,5.20
2018-04-11T18:18:49.089Z,6.90
2018-04-11T18:21:15.152Z,6.80
2018-04-11T18:23:41.301Z,7.00
2018-04-11T18:26:08.350Z,7.60
2018-04-11T18:28:34.417Z,7.40
2018-04-11T18:31:00.623Z,7.40
2018-04-11T18:33:26.709Z,7.30
2018-04-11T18:35:56.317Z,7.60
2018-04-11T18:38:23.127Z,7.70
2018-04-11T18:40:49.176Z,7.60
2018-04-11T18:43:15.241Z,7.90
2018-04-11T18:45:42.098Z,7.70
2018-04-11T18:48:08.261Z,7.90
2018-04-11T18:50:34.325Z,7.20
2018-04-11T18:53:00.384Z,7.30
2018-04-11T18:55:26.441Z,7.30
2018-04-11T18:58:00.834Z,7.30
2018-04-11T19:00:34.650Z,7.30
2018-04-11T19:03:02.664Z,7.30
2018-04-11T19:05:28.853Z,7.70
2018-04-11T19:07:58.421Z,7.80
2018-04-11T19:10:24.573Z,8.20
2018-04-11T19:12:50.643Z,8.80
2018-04-11T19:15:16.706Z,9.10
2018-04-11T19:17:42.765Z,9.90
2018-04-11T19:20:09.642Z,11.40
2018-04-11T19:22:36.115Z,11.20
2018-04-11T19:25:02.220Z,10.80
2018-04-11T19:27:28.396Z,10.00
2018-04-11T19:29:54.481Z,8.80
2018-04-11T19:32:22.377Z,10.50
2018-04-11T19:34:51.901Z,10.40
2018-04-11T19:37:17.948Z,11.90
2018-04-11T19:39:44.062Z,10.80
2018-04-11T19:42:10.238Z,10.90
2018-04-11T19:44:36.448Z,10.40
2018-04-11T19:47:02.577Z,10.80
2018-04-11T19:49:28.860Z,10.80
2018-04-11T19:51:55.725Z,10.10
2018-04-11T19:54:21.838Z,10.20
2018-04-11T19:56:47.924Z,10.30
2018-04-11T19:59:14.049Z,10.20
2018-04-11T20:01:43.469Z,10.60
2018-04-11T20:04:09.622Z,10.60
2018-04-11T20:06:35.819Z,11.30
2018-04-11T20:09:01.914Z,10.90
2018-04-11T20:11:28.801Z,11.30
2018-04-11T20:13:54.958Z,11.30
2018-04-11T20:16:22.018Z,11.40
2018-04-11T20:18:48.292Z,11.40
2018-04-11T20:21:14.431Z,11.40
2018-04-11T20:23:40.711Z,12.40
2018-04-11T20:26:06.862Z,13.20
2018-04-11T20:28:33.001Z,13.50
2018-04-11T20:30:59.073Z,13.30
2018-04-11T20:33:25.211Z,13.30
2018-04-11T20:35:51.260Z,13.40
2018-04-11T20:38:17.345Z,14.10
2018-04-11T20:40:43.456Z,13.90
2018-04-11T20:43:09.579Z,15.40
2018-04-11T20:45:35.723Z,18.30
2018-04-11T20:48:02.553Z,18.40
2018-04-11T20:50:29.382Z,18.60
2018-04-11T20:52:55.491Z,18.30
2018-04-11T20:55:21.585Z,20.90
2018-04-11T20:57:48.393Z,23.90
2018-04-11T21:00:14.535Z,24.20
2018-04-11T21:02:40.760Z,23.70
2018-04-11T21:05:06.851Z,23.30
2018-04-11T21:07:33.665Z,28.50
2018-04-11T21:09:59.750Z,28.30
2018-04-11T21:12:25.972Z,31.30
2018-04-11T21:14:52.796Z,30.30
2018-04-11T21:17:18.853Z,30.20
2018-04-11T21:19:44.933Z,32.30
2018-04-11T21:22:11.068Z,32.90
2018-04-11T21:24:37.235Z,38.80
2018-04-11T21:27:03.329Z,33.70
2018-04-11T21:29:29.440Z,35.60
2018-04-11T21:31:55.579Z,35.10
2018-04-11T21:34:21.685Z,32.30
2018-04-11T21:36:47.901Z,30.50
2018-04-11T21:39:22.771Z,32.30
2018-04-11T21:41:48.861Z,31.90
2018-04-11T21:44:15.652Z,41.50
2018-04-11T21:46:41.814Z,41.30
2018-04-11T21:49:07.945Z,42.40
2018-04-11T21:51:34.792Z,46.00
2018-04-11T21:54:00.889Z,45.90
2018-04-11T21:56:26.965Z,39.50
2018-04-11T21:58:53.034Z,43.10
2018-04-11T22:01:19.084Z,42.80
2018-04-11T22:03:45.907Z,43.80
2018-04-11T22:06:12.011Z,43.70
2018-04-11T22:08:38.136Z,45.40
2018-04-11T22:11:04.194Z,42.90
2018-04-11T22:13:30.301Z,40.40
2018-04-11T22:15:57.489Z,42.60
2018-04-11T22:18:23.566Z,39.50
2018-04-11T22:20:49.640Z,42.20
2018-04-11T22:23:15.704Z,39.90
2018-04-11T22:25:42.055Z,37.50
2018-04-11T22:28:08.128Z,36.70
2018-04-11T22:30:34.233Z,36.10
2018-04-11T22:33:01.392Z,38.20
2018-04-11T22:35:27.472Z,42.80
2018-04-11T22:37:54.287Z,53.40
2018-04-11T22:40:20.352Z,53.30
2018-04-11T22:42:47.161Z,47.80
2018-04-11T22:45:27.208Z,47.80
2018-04-11T22:47:53.277Z,45.90
2018-04-11T22:50:19.357Z,48.10
2018-04-11T22:52:46.157Z,45.80
2018-04-11T22:55:23.684Z,45.70
2018-04-11T22:57:49.744Z,44.70
2018-04-11T23:00:16.561Z,45.80
2018-04-11T23:02:42.678Z,45.70
2018-04-11T23:05:08.758Z,45.50
2018-04-11T23:07:35.626Z,49.10
2018-04-11T23:10:06.879Z,48.50
2018-04-11T23:12:32.991Z,57.20
2018-04-11T23:14:59.060Z,62.10
2018-04-11T23:17:25.891Z,59.70
2018-04-11T23:19:51.980Z,59.60
2018-04-11T23:22:18.025Z,64.20
2018-04-11T23:24:44.072Z,66.60
2018-04-11T23:27:10.234Z,62.70
2018-04-11T23:29:37.093Z,69.70
2018-04-11T23:32:03.965Z,63.90
2018-04-11T23:34:30.797Z,61.20
2018-04-11T23:36:57.907Z,61.00
2018-04-11T23:39:23.972Z,62.70
2018-04-11T23:41:50.049Z,61.20
2018-04-11T23:44:16.837Z,57.30
2018-04-11T23:46:42.916Z,57.20
2018-04-11T23:49:09.013Z,58.80
2018-04-11T23:51:35.141Z,65.80
2018-04-11T23:54:01.276Z,62.30
2018-04-11T23:56:27.369Z,57.10
2018-04-11T23:58:53.424Z,54.60
